createdAt,value
2019-06-08T00:00:08.563Z,100647.48
2019-06-08T00:02:36.940Z,100641.33
2019-06-08T00:05:06.876Z,100625.03
2019-06-08T00:07:35.364Z,100632.88
2019-06-08T00:10:06.280Z,100659.30
2019-06-08T00:12:35.045Z,100629.85
2019-06-08T00:15:06.144Z,100661.84
2019-06-08T00:17:38.756Z,100629.34
2019-06-08T00:20:06.788Z,100644.06
2019-06-08T00:22:35.163Z,100651.72
2019-06-08T00:25:05.070Z,100649.72
2019-06-08T00:27:33.605Z,100637.72
2019-06-08T00:30:02.415Z,100668.28
2019-06-08T00:32:31.060Z,100685.76
2019-06-08T00:34:59.453Z,100674.69
2019-06-08T00:37:27.831Z,100665.89
2019-06-08T00:39:56.489Z,100688.41
2019-06-08T00:42:26.375Z,100700.66
2019-06-08T00:44:54.776Z,100685.77
2019-06-08T00:47:24.607Z,100684.02
2019-06-08T00:49:53.242Z,100686.00
2019-06-08T00:52:21.661Z,100685.70
2019-06-08T00:54:50.036Z,100689.67
2019-06-08T00:57:19.706Z,100704.84
2019-06-08T00:59:48.115Z,100715.63
2019-06-08T01:02:18.246Z,100724.09
2019-06-08T01:04:46.787Z,100724.39
2019-06-08T01:07:15.208Z,100737.27
2019-06-08T01:09:45.113Z,100725.64
2019-06-08T01:12:15.070Z,100720.41
2019-06-08T01:14:43.451Z,100723.37
2019-06-08T01:17:11.859Z,100727.95
2019-06-08T01:19:40.302Z,100726.09
2019-06-08T01:22:10.349Z,100738.52
2019-06-08T01:24:40.392Z,100744.49
2019-06-08T01:27:08.876Z,100748.05
2019-06-08T01:29:37.375Z,100756.20
2019-06-08T01:32:05.844Z,100750.41
2019-06-08T01:34:34.452Z,100742.52
2019-06-08T01:37:03.129Z,100753.62
2019-06-08T01:39:32.415Z,100764.09
2019-06-08T01:42:01.606Z,100771.90
2019-06-08T01:44:30.141Z,100780.66
2019-06-08T01:47:00.164Z,100795.53
2019-06-08T01:49:28.528Z,100810.59
2019-06-08T01:51:58.452Z,100812.22
2019-06-08T01:54:26.985Z,100812.81
2019-06-08T01:56:55.302Z,100804.41
2019-06-08T01:59:23.702Z,100796.70
2019-06-08T02:01:52.129Z,100798.99
2019-06-08T02:04:22.085Z,100788.99
2019-06-08T02:06:50.884Z,100789.81
2019-06-08T02:09:19.295Z,100808.60
2019-06-08T02:11:47.894Z,100818.15
2019-06-08T02:14:16.382Z,100809.23
2019-06-08T02:16:44.807Z,100806.97
2019-06-08T02:19:14.720Z,100828.91
2019-06-08T02:21:44.615Z,100817.56
2019-06-08T02:24:13.075Z,100811.56
2019-06-08T02:26:41.759Z,100818.71
2019-06-08T02:29:10.193Z,100790.88
2019-06-08T02:31:41.940Z,100816.56
2019-06-08T02:34:10.233Z,100811.32
2019-06-08T02:36:38.630Z,100805.86
2019-06-08T02:39:08.384Z,100811.75
2019-06-08T02:41:37.518Z,100807.80
2019-06-08T02:44:08.491Z,100829.42
2019-06-08T02:46:40.470Z,100819.72
2019-06-08T02:49:09.431Z,100839.32
2019-06-08T02:51:38.386Z,100834.38
2019-06-08T02:54:06.914Z,100827.99
2019-06-08T02:56:37.336Z,100837.24
2019-06-08T02:59:06.347Z,100838.30
2019-06-08T03:01:35.962Z,100837.80
2019-06-08T03:04:06.655Z,100843.81
2019-06-08T03:06:39.425Z,100842.08
2019-06-08T03:09:08.273Z,100847.15
2019-06-08T03:11:37.156Z,100855.45
2019-06-08T03:14:07.240Z,100851.91
2019-06-08T03:16:37.982Z,100850.34
2019-06-08T03:19:20.583Z,100854.00
2019-06-08T03:21:36.867Z,100844.34
2019-06-08T03:24:06.138Z,100844.13
2019-06-08T03:26:36.489Z,100848.00
2019-06-08T03:29:04.802Z,100851.27
2019-06-08T03:31:36.111Z,100848.13
2019-06-08T03:34:04.242Z,100859.75
2019-06-08T03:36:35.872Z,100853.30
2019-06-08T03:39:02.918Z,100875.38
2019-06-08T03:41:31.282Z,100872.95
2019-06-08T03:43:59.690Z,100877.37
2019-06-08T03:46:28.294Z,100872.44
2019-06-08T03:48:56.651Z,100866.91
2019-06-08T03:51:25.094Z,100869.08
2019-06-08T03:53:53.541Z,100881.47
2019-06-08T03:56:21.974Z,100888.46
2019-06-08T03:58:50.348Z,100894.85
2019-06-08T04:01:18.860Z,100910.06
2019-06-08T04:03:47.242Z,100902.72
2019-06-08T04:06:17.136Z,100902.55
2019-06-08T04:08:47.510Z,100913.96
2019-06-08T04:11:15.720Z,100914.59
2019-06-08T04:13:45.095Z,100921.50
2019-06-08T04:16:14.259Z,100923.39
2019-06-08T04:18:44.675Z,100922.63
2019-06-08T04:21:12.819Z,100925.88
2019-06-08T04:23:42.749Z,100928.78
2019-06-08T04:26:11.584Z,100927.59
2019-06-08T04:28:40.577Z,100930.02
2019-06-08T04:31:09.296Z,100930.31
2019-06-08T04:33:37.946Z,100930.53
2019-06-08T04:36:06.322Z,100944.17
2019-06-08T04:38:36.225Z,100946.38
2019-06-08T04:41:04.776Z,100952.65
2019-06-08T04:43:33.180Z,100955.34
2019-06-08T04:46:01.594Z,100961.61
2019-06-08T04:48:30.035Z,100974.09
2019-06-08T04:50:58.450Z,100980.16
2019-06-08T04:53:26.939Z,100981.52
2019-06-08T04:55:55.417Z,100989.70
2019-06-08T04:58:23.855Z,100987.70
2019-06-08T05:00:52.253Z,100998.10
2019-06-08T05:03:20.655Z,101004.83
2019-06-08T05:05:50.141Z,101018.17
2019-06-08T05:08:18.756Z,101012.77
2019-06-08T05:10:47.548Z,101015.95
2019-06-08T05:13:16.116Z,101025.00
2019-06-08T05:15:45.436Z,101018.91
2019-06-08T05:18:13.918Z,101027.42
2019-06-08T05:20:45.388Z,101046.19
2019-06-08T05:23:12.559Z,101042.40
2019-06-08T05:25:41.254Z,101053.70
2019-06-08T05:28:09.835Z,101058.31
2019-06-08T05:30:39.317Z,101065.39
2019-06-08T05:33:08.132Z,101065.39
2019-06-08T05:35:39.283Z,101078.28
2019-06-08T05:38:07.917Z,101083.17
2019-06-08T05:40:36.443Z,101083.38
2019-06-08T05:43:06.817Z,101083.38
2019-06-08T05:45:35.210Z,101079.27
2019-06-08T05:48:05.732Z,101090.74
2019-06-08T05:50:34.992Z,101043.56
2019-06-08T05:53:04.439Z,101087.57
2019-06-08T05:55:33.695Z,101086.48
2019-06-08T05:58:02.236Z,101086.78
2019-06-08T06:00:30.661Z,101061.20
2019-06-08T06:02:59.106Z,101082.66
2019-06-08T06:05:27.666Z,101085.38
2019-06-08T06:07:56.052Z,101094.19
2019-06-08T06:10:24.492Z,101097.63
2019-06-08T06:12:53.097Z,101091.72
2019-06-08T06:15:22.071Z,101102.84
2019-06-08T06:17:51.579Z,101105.52
2019-06-08T06:20:22.617Z,101097.57
2019-06-08T06:22:52.589Z,101102.89
2019-06-08T06:25:21.278Z,101111.44
2019-06-08T06:27:49.714Z,101114.61
2019-06-08T06:30:19.059Z,101125.13
2019-06-08T06:32:47.833Z,101128.00
2019-06-08T06:35:16.624Z,101145.21
2019-06-08T06:37:45.910Z,101134.85
2019-06-08T06:40:14.542Z,101138.64
2019-06-08T06:42:43.838Z,101144.06
2019-06-08T06:45:12.744Z,101145.34
2019-06-08T06:47:42.213Z,101146.27
2019-06-08T06:50:12.241Z,101147.56
2019-06-08T06:52:42.748Z,101156.10
2019-06-08T06:55:12.469Z,101159.16
2019-06-08T06:57:41.229Z,101165.28
2019-06-08T07:00:11.752Z,101166.53
2019-06-08T07:02:45.597Z,101163.89
2019-06-08T07:05:15.706Z,101164.02
2019-06-08T07:07:44.213Z,101163.47
2019-06-08T07:10:15.341Z,101172.34
2019-06-08T07:12:46.505Z,101167.00
2019-06-08T07:15:18.089Z,101184.26
2019-06-08T07:17:50.058Z,101177.28
2019-06-08T07:20:21.144Z,101186.48
2019-06-08T07:22:50.203Z,101185.25
2019-06-08T07:25:18.933Z,101182.69
2019-06-08T07:27:50.517Z,101144.05
2019-06-08T07:30:23.275Z,101185.75
2019-06-08T07:33:11.763Z,101207.30
2019-06-08T07:35:40.403Z,101187.78
2019-06-08T07:38:09.011Z,101188.64
2019-06-08T07:40:37.919Z,101195.49
2019-06-08T07:43:06.401Z,101195.12
2019-06-08T07:45:34.976Z,101199.89
2019-06-08T07:48:03.484Z,101206.05
2019-06-08T07:50:32.120Z,101197.83
2019-06-08T07:53:00.751Z,101205.67
2019-06-08T07:55:30.674Z,101210.48
2019-06-08T07:58:00.343Z,101200.75
2019-06-08T08:00:36.302Z,101201.58
2019-06-08T08:03:04.939Z,101200.24
2019-06-08T08:05:35.833Z,101195.64
2019-06-08T08:08:04.545Z,101191.67
2019-06-08T08:10:36.238Z,101205.46
2019-06-08T08:13:09.819Z,101202.59
2019-06-08T08:15:42.936Z,101196.45
2019-06-08T08:18:13.031Z,101216.06
2019-06-08T08:20:44.501Z,101214.88
2019-06-08T08:23:17.319Z,101205.12
2019-06-08T08:25:47.522Z,101218.02
2019-06-08T08:28:17.714Z,101216.25
2019-06-08T08:30:49.346Z,101218.09
2019-06-08T08:33:18.438Z,101223.33
2019-06-08T08:35:50.573Z,101223.33
2019-06-08T08:38:19.261Z,101220.42
2019-06-08T08:40:49.753Z,101223.78
2019-06-08T08:43:17.977Z,101231.73
2019-06-08T08:45:47.690Z,101216.55
2019-06-08T08:48:25.362Z,101220.98
2019-06-08T08:50:51.216Z,101226.25
2019-06-08T08:53:21.025Z,101205.50
2019-06-08T08:55:52.346Z,101212.06
2019-06-08T08:58:21.142Z,101220.39
2019-06-08T09:00:50.934Z,101222.08
2019-06-08T09:03:28.769Z,101217.47
2019-06-08T09:05:51.977Z,101223.13
2019-06-08T09:08:23.269Z,101225.50
2019-06-08T09:10:52.288Z,101223.63
2019-06-08T09:13:22.779Z,101226.37
2019-06-08T09:15:52.334Z,101234.28
2019-06-08T09:18:21.659Z,101249.36
2019-06-08T09:20:52.366Z,101263.19
2019-06-08T09:23:21.941Z,101257.30
2019-06-08T09:25:52.696Z,101259.12
2019-06-08T09:28:21.638Z,101257.92
2019-06-08T09:30:52.047Z,101260.11
2019-06-08T09:33:20.645Z,101254.27
2019-06-08T09:35:53.055Z,101248.08
2019-06-08T09:38:20.838Z,101243.31
2019-06-08T09:40:49.303Z,101251.70
2019-06-08T09:43:18.987Z,101260.02
2019-06-08T09:45:48.424Z,101259.11
2019-06-08T09:48:18.175Z,101268.78
2019-06-08T09:50:48.663Z,101259.99
2019-06-08T09:53:27.957Z,101254.16
2019-06-08T09:55:48.177Z,101248.30
2019-06-08T09:58:18.180Z,101251.86
2019-06-08T10:00:48.923Z,101255.20
2019-06-08T10:03:18.696Z,101259.80
2019-06-08T10:05:48.436Z,101255.43
2019-06-08T10:08:20.245Z,101235.31
2019-06-08T10:10:48.424Z,101268.80
2019-06-08T10:13:18.892Z,101267.84
2019-06-08T10:15:51.202Z,101265.31
2019-06-08T10:18:17.737Z,101245.08
2019-06-08T10:20:48.189Z,101250.16
2019-06-08T10:23:30.244Z,101257.43
2019-06-08T10:25:48.175Z,101263.75
2019-06-08T10:28:21.473Z,101263.25
2019-06-08T10:30:48.687Z,101254.71
2019-06-08T10:33:18.444Z,101250.84
2019-06-08T10:35:48.040Z,101263.38
2019-06-08T10:38:18.176Z,101266.23
2019-06-08T10:41:13.113Z,101270.86
2019-06-08T10:43:32.891Z,101270.86
2019-06-08T10:46:08.455Z,101264.69
2019-06-08T10:48:31.922Z,101267.02
2019-06-08T10:51:04.208Z,101275.44
2019-06-08T10:53:46.446Z,101264.44
2019-06-08T10:56:05.572Z,101274.56
2019-06-08T10:58:34.767Z,101270.08
2019-06-08T11:01:10.717Z,101260.37
2019-06-08T11:03:38.663Z,101250.08
2019-06-08T11:06:11.349Z,101267.05
2019-06-08T11:08:38.877Z,101273.13
2019-06-08T11:11:09.774Z,101261.91
2019-06-08T11:13:37.200Z,101277.23
2019-06-08T11:16:06.676Z,101264.75
2019-06-08T11:18:36.046Z,101265.61
2019-06-08T11:21:07.245Z,101269.23
2019-06-08T11:23:34.856Z,101266.98
2019-06-08T11:26:12.058Z,101265.33
2019-06-08T11:28:34.513Z,101255.88
2019-06-08T11:31:03.954Z,101253.51
2019-06-08T11:33:32.540Z,101267.78
2019-06-08T11:36:02.977Z,101256.31
2019-06-08T11:38:31.076Z,101274.87
2019-06-08T11:41:02.053Z,101267.31
2019-06-08T11:43:29.840Z,101267.70
2019-06-08T11:45:58.466Z,101272.47
2019-06-08T11:48:28.503Z,101273.48
2019-06-08T11:51:00.517Z,101275.63
2019-06-08T11:53:29.247Z,101279.59
2019-06-08T11:55:58.635Z,101284.48
2019-06-08T11:58:30.788Z,101272.55
2019-06-08T12:01:05.171Z,101275.48
2019-06-08T12:03:38.848Z,101271.91
2019-06-08T12:06:10.493Z,101270.03
2019-06-08T12:08:38.148Z,101271.63
2019-06-08T12:11:11.578Z,101277.83
2019-06-08T12:13:38.331Z,101268.47
2019-06-08T12:16:10.374Z,101277.31
2019-06-08T12:18:40.098Z,101274.53
2019-06-08T12:21:11.292Z,101276.59
2019-06-08T12:23:39.305Z,101279.10
2019-06-08T12:26:08.192Z,101282.74
2019-06-08T12:28:38.324Z,101271.84
2019-06-08T12:31:12.011Z,101272.57
2019-06-08T12:33:39.127Z,101271.41
2019-06-08T12:36:09.127Z,101272.38
2019-06-08T12:38:38.037Z,101266.31
2019-06-08T12:41:09.139Z,101273.61
2019-06-08T12:43:38.553Z,101262.93
2019-06-08T12:46:10.640Z,101267.11
2019-06-08T12:48:38.510Z,101267.03
2019-06-08T12:51:10.001Z,101274.53
2019-06-08T12:53:38.189Z,101275.33
2019-06-08T12:56:09.080Z,101275.77
2019-06-08T12:58:38.654Z,101265.41
2019-06-08T13:01:08.191Z,101268.91
2019-06-08T13:03:38.786Z,101265.08
2019-06-08T13:06:08.977Z,101262.81
2019-06-08T13:08:39.057Z,101273.04
2019-06-08T13:11:09.370Z,101269.17
2019-06-08T13:13:37.974Z,101266.67
2019-06-08T13:16:06.465Z,101268.89
2019-06-08T13:18:34.962Z,101270.27
2019-06-08T13:21:18.738Z,101267.79
2019-06-08T13:23:34.426Z,101242.54
2019-06-08T13:26:02.897Z,101275.05
2019-06-08T13:28:31.376Z,101274.71
2019-06-08T13:30:59.862Z,101274.06
2019-06-08T13:33:28.355Z,101266.16
2019-06-08T13:35:58.027Z,101268.95
2019-06-08T13:38:27.769Z,101271.73
2019-06-08T13:40:58.910Z,101274.23
2019-06-08T13:43:27.077Z,101275.02
2019-06-08T13:45:58.090Z,101268.11
2019-06-08T13:48:25.989Z,101272.85
2019-06-08T13:50:54.468Z,101260.33
2019-06-08T13:53:28.379Z,101244.25
2019-06-08T13:55:56.764Z,101277.55
2019-06-08T13:58:32.154Z,101273.09
2019-06-08T14:00:56.761Z,101273.94
2019-06-08T14:03:24.831Z,101276.98
2019-06-08T14:05:53.510Z,101272.77
2019-06-08T14:08:25.913Z,101269.43
2019-06-08T14:11:00.482Z,101263.39
2019-06-08T14:13:29.004Z,101262.81
2019-06-08T14:15:58.439Z,101264.19
2019-06-08T14:18:29.931Z,101265.59
2019-06-08T14:20:58.696Z,101270.85
2019-06-08T14:23:27.801Z,101278.61
2019-06-08T14:25:59.907Z,101277.52
2019-06-08T14:28:28.960Z,101266.98
2019-06-08T14:30:59.346Z,101274.74
2019-06-08T14:33:32.088Z,101246.45
2019-06-08T14:35:59.212Z,101268.68
2019-06-08T14:38:37.645Z,101265.91
2019-06-08T14:40:59.664Z,101266.98
2019-06-08T14:43:31.238Z,101268.91
2019-06-08T14:45:58.435Z,101271.41
2019-06-08T14:48:32.110Z,101272.53
2019-06-08T14:50:58.617Z,101269.75
2019-06-08T14:53:29.494Z,101271.67
2019-06-08T14:56:05.758Z,101250.31
2019-06-08T14:58:33.611Z,101266.12
2019-06-08T15:00:58.519Z,101249.21
2019-06-08T15:03:27.288Z,101249.21
2019-06-08T15:05:57.744Z,101259.44
2019-06-08T15:08:28.212Z,101260.74
2019-06-08T15:10:58.192Z,101266.28
2019-06-08T15:13:28.590Z,101261.25
2019-06-08T15:16:00.421Z,101255.31
2019-06-08T15:18:28.706Z,101253.62
2019-06-08T15:20:58.121Z,101247.55
2019-06-08T15:23:29.036Z,101247.81
2019-06-08T15:25:58.267Z,101227.70
2019-06-08T15:28:29.302Z,101247.01
2019-06-08T15:30:59.817Z,101247.39
2019-06-08T15:33:32.231Z,101247.82
2019-06-08T15:35:57.677Z,101237.09
2019-06-08T15:38:28.028Z,101235.40
2019-06-08T15:40:57.668Z,101234.28
2019-06-08T15:43:29.165Z,101229.23
2019-06-08T15:45:58.929Z,101233.19
2019-06-08T15:48:28.979Z,101231.70
2019-06-08T15:50:58.373Z,101234.13
2019-06-08T15:53:29.071Z,101235.69
2019-06-08T15:55:58.389Z,101231.78
2019-06-08T15:58:29.535Z,101223.22
2019-06-08T16:00:57.302Z,101227.29
2019-06-08T16:03:25.836Z,101197.48
2019-06-08T16:05:56.355Z,101223.59
2019-06-08T16:08:25.964Z,101223.13
2019-06-08T16:10:54.596Z,101220.98
2019-06-08T16:13:26.780Z,101220.24
2019-06-08T16:15:55.711Z,101216.37
2019-06-08T16:18:25.432Z,101213.70
2019-06-08T16:20:55.018Z,101212.85
2019-06-08T16:23:25.382Z,101221.39
2019-06-08T16:26:00.407Z,101216.61
2019-06-08T16:28:29.938Z,101222.95
2019-06-08T16:30:58.904Z,101215.74
2019-06-08T16:33:27.425Z,101217.86
2019-06-08T16:35:55.906Z,101218.09
2019-06-08T16:38:26.292Z,101217.78
2019-06-08T16:40:56.457Z,101215.53
2019-06-08T16:43:24.924Z,101221.31
2019-06-08T16:45:53.459Z,101215.70
2019-06-08T16:48:21.929Z,101219.22
2019-06-08T16:50:50.897Z,101226.06
2019-06-08T16:53:19.353Z,101226.78
2019-06-08T16:55:47.914Z,101198.84
2019-06-08T16:58:16.615Z,101230.71
2019-06-08T17:00:45.139Z,101230.91
2019-06-08T17:03:17.412Z,101230.34
2019-06-08T17:05:45.875Z,101236.73
2019-06-08T17:08:14.530Z,101198.38
2019-06-08T17:10:42.996Z,101237.27
2019-06-08T17:13:12.217Z,101242.18
2019-06-08T17:15:41.014Z,101228.58
2019-06-08T17:18:09.836Z,101232.34
2019-06-08T17:20:38.490Z,101233.66
2019-06-08T17:23:08.435Z,101233.73
2019-06-08T17:25:37.193Z,101233.73
2019-06-08T17:28:06.168Z,101226.70
2019-06-08T17:30:35.785Z,101227.17
2019-06-08T17:33:06.510Z,101230.92
2019-06-08T17:35:35.611Z,101230.00
2019-06-08T17:38:04.504Z,101228.34
2019-06-08T17:40:34.193Z,101224.73
2019-06-08T17:43:04.685Z,101230.14
2019-06-08T17:45:34.204Z,101230.28
2019-06-08T17:48:02.692Z,101234.02
2019-06-08T17:50:32.560Z,101227.66
2019-06-08T17:53:01.142Z,101200.19
2019-06-08T17:55:29.621Z,101227.39
2019-06-08T17:57:58.089Z,101235.53
2019-06-08T18:00:26.815Z,101229.87
2019-06-08T18:02:57.679Z,101231.94
2019-06-08T18:05:28.169Z,101225.50
2019-06-08T18:07:57.822Z,101229.51
2019-06-08T18:10:27.734Z,101224.40
2019-06-08T18:12:58.783Z,101222.78
2019-06-08T18:15:28.303Z,101225.17
2019-06-08T18:17:57.734Z,101227.70
2019-06-08T18:20:28.280Z,101228.06
2019-06-08T18:22:58.729Z,101231.19
2019-06-08T18:25:27.878Z,101231.59
2019-06-08T18:28:06.511Z,101234.72
2019-06-08T18:30:27.700Z,101236.35
2019-06-08T18:32:58.206Z,101231.14
2019-06-08T18:35:27.773Z,101233.55
2019-06-08T18:37:57.854Z,101234.55
2019-06-08T18:40:27.625Z,101232.95
2019-06-08T18:42:57.682Z,101238.16
2019-06-08T18:45:27.676Z,101239.77
2019-06-08T18:47:57.779Z,101237.73
2019-06-08T18:50:28.497Z,101233.63
2019-06-08T18:52:57.993Z,101240.11
2019-06-08T18:55:27.706Z,101245.00
2019-06-08T18:57:58.144Z,101252.77
2019-06-08T19:00:43.456Z,101253.33
2019-06-08T19:03:11.489Z,101249.88
2019-06-08T19:05:45.149Z,101247.63
2019-06-08T19:08:12.142Z,101253.94
2019-06-08T19:10:42.345Z,101258.63
2019-06-08T19:13:11.253Z,101254.53
2019-06-08T19:15:42.857Z,101261.13
2019-06-08T19:18:09.975Z,101254.95
2019-06-08T19:20:43.087Z,101255.64
2019-06-08T19:23:09.417Z,101265.25
2019-06-08T19:25:42.187Z,101269.17
2019-06-08T19:28:08.360Z,101271.07
2019-06-08T19:30:40.371Z,101264.90
2019-06-08T19:33:08.225Z,101269.86
2019-06-08T19:35:37.684Z,101270.16
2019-06-08T19:38:07.461Z,101281.11
2019-06-08T19:40:39.150Z,101282.71
2019-06-08T19:43:07.822Z,101282.34
2019-06-08T19:45:39.169Z,101283.77
2019-06-08T19:48:09.103Z,101291.61
2019-06-08T19:50:38.667Z,101295.03
2019-06-08T19:53:07.779Z,101291.78
2019-06-08T19:55:39.217Z,101296.34
2019-06-08T19:58:08.779Z,101296.36
2019-06-08T20:00:39.284Z,101298.62
2019-06-08T20:03:07.832Z,101306.81
2019-06-08T20:05:38.131Z,101305.01
2019-06-08T20:08:08.043Z,101305.16
2019-06-08T20:10:36.772Z,101315.45
2019-06-08T20:13:07.714Z,101312.77
2019-06-08T20:15:43.374Z,101320.61
2019-06-08T20:18:08.563Z,101299.13
2019-06-08T20:20:38.156Z,101321.94
2019-06-08T20:23:09.579Z,101331.45
2019-06-08T20:25:38.162Z,101330.17
2019-06-08T20:28:07.936Z,101333.15
2019-06-08T20:30:36.562Z,101341.89
2019-06-08T20:33:05.121Z,101339.66
2019-06-08T20:35:33.517Z,101346.52
2019-06-08T20:38:01.980Z,101341.59
2019-06-08T20:40:30.517Z,101346.31
2019-06-08T20:42:59.072Z,101335.41
2019-06-08T20:45:28.158Z,101342.55
2019-06-08T20:47:58.454Z,101340.31
2019-06-08T20:50:27.299Z,101343.38
2019-06-08T20:52:57.792Z,101347.27
2019-06-08T20:55:28.269Z,101352.70
2019-06-08T20:57:57.617Z,101349.98
2019-06-08T21:00:27.644Z,101359.84
2019-06-08T21:03:02.603Z,101368.34
2019-06-08T21:05:27.816Z,101365.37
2019-06-08T21:07:58.980Z,101372.95
2019-06-08T21:10:28.282Z,101373.16
2019-06-08T21:12:59.763Z,101365.48
2019-06-08T21:15:30.992Z,101363.95
2019-06-08T21:17:59.484Z,101367.80
2019-06-08T21:20:28.357Z,101366.52
2019-06-08T21:22:59.710Z,101365.31
2019-06-08T21:25:28.129Z,101358.38
2019-06-08T21:27:58.413Z,101360.55
2019-06-08T21:30:28.747Z,101343.36
2019-06-08T21:33:00.677Z,101363.20
2019-06-08T21:35:27.640Z,101362.98
2019-06-08T21:38:01.042Z,101361.38
2019-06-08T21:40:28.879Z,101357.06
2019-06-08T21:43:01.142Z,101343.36
2019-06-08T21:45:29.248Z,101334.50
2019-06-08T21:48:00.157Z,101356.98
2019-06-08T21:50:27.909Z,101365.44
2019-06-08T21:52:59.091Z,101369.06
2019-06-08T21:55:27.341Z,101362.84
2019-06-08T21:57:59.886Z,101367.98
2019-06-08T22:00:39.344Z,101358.03
2019-06-08T22:02:58.934Z,101358.42
2019-06-08T22:05:27.164Z,101362.91
2019-06-08T22:07:58.294Z,101357.84
2019-06-08T22:10:25.860Z,101352.77
2019-06-08T22:12:55.716Z,101360.62
2019-06-08T22:15:27.155Z,101356.59
2019-06-08T22:17:59.671Z,101354.91
2019-06-08T22:20:29.266Z,101360.13
2019-06-08T22:23:01.071Z,101364.29
2019-06-08T22:25:29.521Z,101369.27
2019-06-08T22:27:59.591Z,101368.77
2019-06-08T22:30:36.424Z,101364.02
2019-06-08T22:32:59.771Z,101353.52
2019-06-08T22:35:29.866Z,101359.89
2019-06-08T22:38:00.786Z,101359.94
2019-06-08T22:40:28.532Z,101360.55
2019-06-08T22:42:59.316Z,101360.28
2019-06-08T22:45:28.131Z,101361.21
2019-06-08T22:47:58.869Z,101364.32
2019-06-08T22:50:27.573Z,101366.89
2019-06-08T22:52:59.361Z,101365.72
2019-06-08T22:55:27.783Z,101342.34
2019-06-08T22:57:59.855Z,101365.36
2019-06-08T23:00:28.001Z,101367.23
2019-06-08T23:02:59.309Z,101368.16
2019-06-08T23:05:27.830Z,101367.23
2019-06-08T23:08:04.007Z,101357.83
2019-06-08T23:10:31.380Z,101360.23
2019-06-08T23:13:02.465Z,101354.12
2019-06-08T23:15:29.960Z,101349.14
2019-06-08T23:18:02.425Z,101357.06
2019-06-08T23:20:28.662Z,101355.97
2019-06-08T23:22:58.596Z,101363.34
2019-06-08T23:25:27.929Z,101363.59
2019-06-08T23:27:56.700Z,101356.70
2019-06-08T23:30:27.598Z,101350.70
2019-06-08T23:33:00.665Z,101346.03
2019-06-08T23:35:44.366Z,101350.01
2019-06-08T23:38:00.843Z,101339.39
2019-06-08T23:40:31.618Z,101336.92
2019-06-08T23:43:04.193Z,101337.49
2019-06-08T23:45:34.412Z,101338.59
2019-06-08T23:48:02.914Z,101340.65
2019-06-08T23:50:31.426Z,101341.72
2019-06-08T23:53:00.676Z,101341.11
2019-06-08T23:55:29.415Z,101345.24
2019-06-08T23:57:58.662Z,101351.23
